This is the latest recevied weather packets stored in our database for station/object EA5GTE-12. If no packets are shown the sender has not sent any weather packets the latest 10 day(s).
| Time | Temp. | Humidity | Pressure | Rain* | Wind** | Luminosity | Snow |
|---|---|---|---|---|---|---|---|
| 1777916245 | 21.11° C | 39% | 933.9 hPa | - | - | - | - |
| 1777915345 | 22.78° C | 36% | 933.8 hPa | - | - | - | - |
| 1777914445 | 18.89° C | 53% | 934 hPa | - | - | - | - |
| 1777913544 | 22.22° C | 38% | 933.8 hPa | - | - | - | - |
| 1777912644 | 23.33° C | 35% | 933.9 hPa | - | - | - | - |
| 1777911744 | 22.22° C | 36% | 933.8 hPa | - | - | - | - |
| 1777910844 | 23.89° C | 32% | 933.8 hPa | - | - | - | - |
| 1777909944 | 21.11° C | 36% | 933.7 hPa | - | - | - | - |
| 1777909044 | 22.22° C | 34% | 933.7 hPa | - | - | - | - |
| 1777908144 | 24.44° C | 33% | 933.7 hPa | - | - | - | - |
| 1777907244 | 25.56° C | 28% | 933.6 hPa | - | - | - | - |
| 1777906344 | 20.56° C | 40% | 933.9 hPa | - | - | - | - |
| 1777905444 | 23.89° C | 35% | 933.9 hPa | - | - | - | - |
| 1777904543 | 22.78° C | 30% | 933.8 hPa | - | - | - | - |
| 1777903644 | 23.33° C | 30% | 934 hPa | - | - | - | - |
| 1777902743 | 23.33° C | 35% | 934.1 hPa | - | - | - | - |
| 1777901840 | 20.56° C | 41% | 934.3 hPa | - | - | - | - |
| 1777900941 | 22.22° C | 37% | 934.3 hPa | - | - | - | - |
| 1777899140 | 22.78° C | 34% | 934.1 hPa | - | - | - | - |
| 1777898240 | 23.89° C | 37% | 934.4 hPa | - | - | - | - |
| 1777897679 | 22.22° C | 36% | 934.5 hPa | - | - | - | - |
| 1777897340 | 22.22° C | 36% | 934.5 hPa | - | - | - | - |
| 1777896440 | 22.22° C | 34% | 934.7 hPa | - | - | - | - |
| 1777895540 | 22.22° C | 41% | 935 hPa | - | - | - | - |
| 1777894640 | 21.67° C | 43% | 935.2 hPa | - | - | - | - |
* Rain since midnight (hover to see other rain measurements)
** Current wind speed in m/s (hover to see current wind gust speed)